Aérodrome :
LOGIN :

S'inscrire | Disclaimer

   EN    FR    IT 

 










Légende :    VFR   VFR Marginal   IFR   IFR Intensif   IFR Très Intensif
Visi : 
Plafond : 
>= 8 km
>= 3000ft
5 à 8 km
1000 à 3000 ft
1500m à 5 km
500 à 1000 ft
800 à 1500m
200 à 500 ft
< 800m
< 200 ft
Symboles :   Orages  Brouillard  Fortes neiges  Fortes précipitations  Vent > 20 kt
SIGMETs :   Divers  Orages  Givrage  Turbulence  Onde Orograph.  Cendres Volcan.







- Altitude de l'aérodrome : 218 ft
- Code IATA : LBG
- Voir les cartes d'approche


LFPB - Paris / Le Bourget

DERNIER METAR :
  • 190400Z AUTO 24003KT CAVOK 08/06 Q1020 TEMPO 3000 BR BKN005

METARs EXPIRÉS :
  • 190330Z AUTO 22003KT 9999 SCT021 SCT047 OVC084 07/05 Q1020 TEMPO 3000 BR BKN005
  • 190300Z AUTO 22003KT 9999 -DZ BKN022 BKN039 OVC068 08/06 Q1020 BECMG BKN010
  • 190230Z AUTO VRB03KT 9999 -DZ FEW025 BKN050 OVC066 08/06 Q1020 BECMG BKN010
  • 190200Z AUTO 23004KT 9999 OVC036 08/06 Q1020 NOSIG
  • 190130Z AUTO 24004KT 9000 -RA BKN033 OVC050 08/05 Q1020 NOSIG

TAF TAF LFPB
Valide du 19 à 00h jusqu'au 20 à 00h UTC


182300Z 1900/1924 28005KT CAVOK
BECMG 1904/1906 BKN010
TEMPO 1905/1909 3000 BR BKN005
BECMG 1911/1913 BKN035
ATIS : +33 1 48 62 43 92
Pas de NOTAMs connus pour ce terrain.
1 SIGMET publié pour la FIR Paris (LFFF) :
 
Turbulence forte
LFFF SIGMET 1 VALID 190410/190800 LFPW
LFFF PARIS FIR/UIR SEV TURB FCST WI N4730 W00015 - N4830 W00015 - N5030 E00215 - N4930 E00245 - N4730 W00015 FL180/280 MOV SE 10KT NC=



MET'MAP, la Météo Aéronautique d'un coup d'oeil ! - Copyright ORBIFLY Décembre 2007 - Disclaimer

ORBIFLY MET'MAP TEAM :

Programmation & Développement : Alexandra Zaïnal
Conception & Développement : Baudouin d'Aumeries
Co-Programmation & Développement : Marc-Olivier Méhu
Soutien technique & logistique : Manuel Goepfert

Contact : metmap@orbifly.com




SOURCES & CREDITS :

   NOAA